sensor_id;sensor_type;location;lat;lon;timestamp;P1;durP1;ratioP1;P2;durP2;ratioP2
10052;SDS011;52418;53.134;8.236;2022-08-24T00:01:56;1.10;;;1.10;;
10052;SDS011;52418;53.134;8.236;2022-08-24T00:04:21;1.10;;;1.10;;
10052;SDS011;52418;53.134;8.236;2022-08-24T00:06:46;1.20;;;1.20;;
10052;SDS011;52418;53.134;8.236;2022-08-24T00:09:11;1.20;;;1.20;;
10052;SDS011;52418;53.134;8.236;2022-08-24T00:11:36;1.10;;;1.10;;
10052;SDS011;52418;53.134;8.236;2022-08-24T00:14:02;1.20;;;1.20;;
10052;SDS011;52418;53.134;8.236;2022-08-24T00:16:27;1.10;;;1.10;;
10052;SDS011;52418;53.134;8.236;2022-08-24T00:18:53;1.10;;;1.10;;
10052;SDS011;52418;53.134;8.236;2022-08-24T00:21:20;1.20;;;1.20;;
10052;SDS011;52418;53.134;8.236;2022-08-24T00:23:45;1.10;;;1.10;;
10052;SDS011;52418;53.134;8.236;2022-08-24T00:26:13;1.10;;;1.10;;
10052;SDS011;52418;53.134;8.236;2022-08-24T00:28:39;1.20;;;1.20;;
10052;SDS011;52418;53.134;8.236;2022-08-24T00:31:04;1.13;;;1.13;;
10052;SDS011;52418;53.134;8.236;2022-08-24T00:33:29;1.00;;;1.00;;
10052;SDS011;52418;53.134;8.236;2022-08-24T00:35:54;1.17;;;1.17;;
10052;SDS011;52418;53.134;8.236;2022-08-24T00:38:20;1.10;;;1.10;;
10052;SDS011;52418;53.134;8.236;2022-08-24T00:40:46;1.10;;;1.10;;
10052;SDS011;52418;53.134;8.236;2022-08-24T00:43:11;1.13;;;1.13;;
10052;SDS011;52418;53.134;8.236;2022-08-24T00:45:40;1.10;;;1.10;;
10052;SDS011;52418;53.134;8.236;2022-08-24T00:48:10;1.10;;;1.10;;
10052;SDS011;52418;53.134;8.236;2022-08-24T00:50:39;1.10;;;1.10;;
10052;SDS011;52418;53.134;8.236;2022-08-24T00:53:07;1.08;;;1.08;;
10052;SDS011;52418;53.134;8.236;2022-08-24T00:55:37;1.10;;;1.10;;
10052;SDS011;52418;53.134;8.236;2022-08-24T00:58:04;1.17;;;1.17;;
10052;SDS011;52418;53.134;8.236;2022-08-24T01:00:32;1.10;;;1.10;;
10052;SDS011;52418;53.134;8.236;2022-08-24T01:02:59;1.15;;;1.15;;
10052;SDS011;52418;53.134;8.236;2022-08-24T01:05:34;1.10;;;1.10;;
10052;SDS011;52418;53.134;8.236;2022-08-24T01:08:01;1.10;;;1.10;;
10052;SDS011;52418;53.134;8.236;2022-08-24T01:10:28;1.10;;;1.10;;
10052;SDS011;52418;53.134;8.236;2022-08-24T01:12:56;1.02;;;1.02;;
10052;SDS011;52418;53.134;8.236;2022-08-24T01:15:22;1.10;;;1.10;;
10052;SDS011;52418;53.134;8.236;2022-08-24T01:17:47;1.10;;;1.10;;
10052;SDS011;52418;53.134;8.236;2022-08-24T01:20:31;1.13;;;1.13;;
10052;SDS011;52418;53.134;8.236;2022-08-24T01:25:22;1.13;;;1.13;;
10052;SDS011;52418;53.134;8.236;2022-08-24T01:27:48;1.10;;;1.10;;
10052;SDS011;52418;53.134;8.236;2022-08-24T01:30:14;1.20;;;1.20;;
10052;SDS011;52418;53.134;8.236;2022-08-24T01:35:25;1.15;;;1.15;;
10052;SDS011;52418;53.134;8.236;2022-08-24T01:37:51;1.10;;;1.10;;
10052;SDS011;52418;53.134;8.236;2022-08-24T01:40:16;1.20;;;1.20;;
10052;SDS011;52418;53.134;8.236;2022-08-24T01:42:49;1.10;;;1.10;;
10052;SDS011;52418;53.134;8.236;2022-08-24T01:45:15;1.00;;;1.00;;
10052;SDS011;52418;53.134;8.236;2022-08-24T01:47:40;1.10;;;1.10;;
10052;SDS011;52418;53.134;8.236;2022-08-24T01:50:05;1.10;;;1.10;;
10052;SDS011;52418;53.134;8.236;2022-08-24T01:52:31;1.08;;;1.08;;
10052;SDS011;52418;53.134;8.236;2022-08-24T01:54:59;1.10;;;1.10;;
10052;SDS011;52418;53.134;8.236;2022-08-24T01:57:26;1.10;;;1.10;;
10052;SDS011;52418;53.134;8.236;2022-08-24T01:59:51;1.13;;;1.13;;
10052;SDS011;52418;53.134;8.236;2022-08-24T02:02:18;1.10;;;1.10;;
10052;SDS011;52418;53.134;8.236;2022-08-24T02:04:45;1.10;;;1.10;;
10052;SDS011;52418;53.134;8.236;2022-08-24T02:07:10;1.10;;;1.10;;
10052;SDS011;52418;53.134;8.236;2022-08-24T02:09:37;1.10;;;1.10;;
10052;SDS011;52418;53.134;8.236;2022-08-24T02:12:03;1.10;;;1.10;;
10052;SDS011;52418;53.134;8.236;2022-08-24T02:14:28;1.17;;;1.17;;
10052;SDS011;52418;53.134;8.236;2022-08-24T02:16:54;1.10;;;1.10;;
10052;SDS011;52418;53.134;8.236;2022-08-24T02:19:20;1.10;;;1.10;;
10052;SDS011;52418;53.134;8.236;2022-08-24T02:21:45;1.00;;;1.00;;
10052;SDS011;52418;53.134;8.236;2022-08-24T02:24:10;1.20;;;1.20;;
10052;SDS011;52418;53.134;8.236;2022-08-24T02:26:36;1.10;;;1.10;;
10052;SDS011;52418;53.134;8.236;2022-08-24T02:29:01;1.10;;;1.10;;
10052;SDS011;52418;53.134;8.236;2022-08-24T02:31:26;1.10;;;1.10;;
10052;SDS011;52418;53.134;8.236;2022-08-24T02:33:51;1.10;;;1.10;;
10052;SDS011;52418;53.134;8.236;2022-08-24T02:36:17;1.10;;;1.10;;
10052;SDS011;52418;53.134;8.236;2022-08-24T02:38:42;1.10;;;1.10;;
10052;SDS011;52418;53.134;8.236;2022-08-24T02:41:09;1.10;;;1.10;;
10052;SDS011;52418;53.134;8.236;2022-08-24T02:43:34;1.10;;;1.10;;
10052;SDS011;52418;53.134;8.236;2022-08-24T02:45:59;1.10;;;1.10;;
10052;SDS011;52418;53.134;8.236;2022-08-24T02:48:25;1.10;;;1.10;;
10052;SDS011;52418;53.134;8.236;2022-08-24T02:50:50;1.10;;;1.10;;
10052;SDS011;52418;53.134;8.236;2022-08-24T02:53:16;1.10;;;1.10;;
10052;SDS011;52418;53.134;8.236;2022-08-24T02:55:42;1.10;;;1.10;;
10052;SDS011;52418;53.134;8.236;2022-08-24T02:58:08;1.00;;;1.00;;
10052;SDS011;52418;53.134;8.236;2022-08-24T03:00:34;1.00;;;1.00;;
10052;SDS011;52418;53.134;8.236;2022-08-24T03:03:00;1.08;;;1.08;;
10052;SDS011;52418;53.134;8.236;2022-08-24T03:05:25;1.10;;;1.10;;
10052;SDS011;52418;53.134;8.236;2022-08-24T03:07:50;1.20;;;1.20;;
10052;SDS011;52418;53.134;8.236;2022-08-24T03:10:16;1.10;;;1.10;;
10052;SDS011;52418;53.134;8.236;2022-08-24T03:12:42;1.13;;;1.13;;
10052;SDS011;52418;53.134;8.236;2022-08-24T03:15:07;1.10;;;1.10;;
10052;SDS011;52418;53.134;8.236;2022-08-24T03:17:34;1.05;;;1.05;;
10052;SDS011;52418;53.134;8.236;2022-08-24T03:20:00;1.10;;;1.10;;
10052;SDS011;52418;53.134;8.236;2022-08-24T03:22:25;1.10;;;1.10;;
10052;SDS011;52418;53.134;8.236;2022-08-24T03:24:51;1.10;;;1.10;;
10052;SDS011;52418;53.134;8.236;2022-08-24T03:27:16;1.10;;;1.10;;
10052;SDS011;52418;53.134;8.236;2022-08-24T03:29:41;1.10;;;1.10;;
10052;SDS011;52418;53.134;8.236;2022-08-24T03:32:06;1.10;;;1.10;;
10052;SDS011;52418;53.134;8.236;2022-08-24T03:34:32;1.10;;;1.10;;
10052;SDS011;52418;53.134;8.236;2022-08-24T03:36:57;1.20;;;1.20;;
10052;SDS011;52418;53.134;8.236;2022-08-24T03:39:22;1.05;;;1.05;;
10052;SDS011;52418;53.134;8.236;2022-08-24T03:41:47;1.20;;;1.20;;
10052;SDS011;52418;53.134;8.236;2022-08-24T03:44:12;1.10;;;1.10;;
10052;SDS011;52418;53.134;8.236;2022-08-24T03:46:38;1.10;;;1.10;;
10052;SDS011;52418;53.134;8.236;2022-08-24T03:49:04;1.20;;;1.20;;
10052;SDS011;52418;53.134;8.236;2022-08-24T03:51:30;1.10;;;1.10;;
10052;SDS011;52418;53.134;8.236;2022-08-24T03:53:56;1.10;;;1.10;;
10052;SDS011;52418;53.134;8.236;2022-08-24T03:56:22;1.10;;;1.10;;
10052;SDS011;52418;53.134;8.236;2022-08-24T03:58:47;1.20;;;1.20;;
10052;SDS011;52418;53.134;8.236;2022-08-24T04:01:13;1.08;;;1.08;;
10052;SDS011;52418;53.134;8.236;2022-08-24T04:03:39;1.00;;;1.00;;
10052;SDS011;52418;53.134;8.236;2022-08-24T04:06:05;1.10;;;1.10;;
10052;SDS011;52418;53.134;8.236;2022-08-24T04:08:31;1.00;;;1.00;;
10052;SDS011;52418;53.134;8.236;2022-08-24T04:10:57;1.08;;;1.08;;
10052;SDS011;52418;53.134;8.236;2022-08-24T04:13:22;1.17;;;1.17;;
10052;SDS011;52418;53.134;8.236;2022-08-24T04:15:48;1.00;;;1.00;;
10052;SDS011;52418;53.134;8.236;2022-08-24T04:18:15;1.00;;;1.00;;
10052;SDS011;52418;53.134;8.236;2022-08-24T04:20:41;1.00;;;1.00;;
10052;SDS011;52418;53.134;8.236;2022-08-24T04:23:07;1.10;;;1.10;;
10052;SDS011;52418;53.134;8.236;2022-08-24T04:26:05;1.08;;;1.08;;
10052;SDS011;52418;53.134;8.236;2022-08-24T04:28:23;1.05;;;1.05;;
10052;SDS011;52418;53.134;8.236;2022-08-24T04:30:48;1.00;;;1.00;;
10052;SDS011;52418;53.134;8.236;2022-08-24T04:33:17;1.00;;;1.00;;
10052;SDS011;52418;53.134;8.236;2022-08-24T04:35:44;1.02;;;1.02;;
10052;SDS011;52418;53.134;8.236;2022-08-24T04:38:11;1.00;;;1.00;;
10052;SDS011;52418;53.134;8.236;2022-08-24T04:40:40;1.00;;;1.00;;
10052;SDS011;52418;53.134;8.236;2022-08-24T04:43:05;0.95;;;0.95;;
10052;SDS011;52418;53.134;8.236;2022-08-24T04:45:31;1.00;;;1.00;;
10052;SDS011;52418;53.134;8.236;2022-08-24T04:47:56;0.90;;;0.90;;
10052;SDS011;52418;53.134;8.236;2022-08-24T04:50:21;0.90;;;0.90;;
10052;SDS011;52418;53.134;8.236;2022-08-24T04:52:46;0.90;;;0.90;;
10052;SDS011;52418;53.134;8.236;2022-08-24T04:55:11;1.00;;;1.00;;
10052;SDS011;52418;53.134;8.236;2022-08-24T04:57:37;0.98;;;0.98;;
10052;SDS011;52418;53.134;8.236;2022-08-24T05:00:02;1.00;;;1.00;;
10052;SDS011;52418;53.134;8.236;2022-08-24T05:02:29;0.98;;;0.98;;
10052;SDS011;52418;53.134;8.236;2022-08-24T05:04:57;1.00;;;1.00;;
10052;SDS011;52418;53.134;8.236;2022-08-24T05:07:22;0.90;;;0.90;;
10052;SDS011;52418;53.134;8.236;2022-08-24T05:09:47;1.05;;;1.05;;
10052;SDS011;52418;53.134;8.236;2022-08-24T05:12:13;1.02;;;1.02;;
10052;SDS011;52418;53.134;8.236;2022-08-24T05:14:38;1.00;;;1.00;;
10052;SDS011;52418;53.134;8.236;2022-08-24T05:17:03;0.90;;;0.90;;
10052;SDS011;52418;53.134;8.236;2022-08-24T05:19:28;1.02;;;1.02;;
10052;SDS011;52418;53.134;8.236;2022-08-24T05:21:54;0.90;;;0.90;;
10052;SDS011;52418;53.134;8.236;2022-08-24T05:24:19;1.00;;;1.00;;
10052;SDS011;52418;53.134;8.236;2022-08-24T05:26:44;1.00;;;1.00;;
10052;SDS011;52418;53.134;8.236;2022-08-24T05:29:10;1.00;;;1.00;;
10052;SDS011;52418;53.134;8.236;2022-08-24T05:31:35;1.10;;;1.10;;
10052;SDS011;52418;53.134;8.236;2022-08-24T05:34:00;1.00;;;1.00;;
10052;SDS011;52418;53.134;8.236;2022-08-24T05:36:30;1.00;;;1.00;;
10052;SDS011;52418;53.134;8.236;2022-08-24T05:38:57;0.90;;;0.90;;
10052;SDS011;52418;53.134;8.236;2022-08-24T05:41:22;1.00;;;1.00;;
10052;SDS011;52418;53.134;8.236;2022-08-24T05:43:48;0.93;;;0.93;;
10052;SDS011;52418;53.134;8.236;2022-08-24T05:46:13;0.90;;;0.90;;
10052;SDS011;52418;53.134;8.236;2022-08-24T05:48:39;0.90;;;0.90;;
10052;SDS011;52418;53.134;8.236;2022-08-24T05:51:05;1.00;;;1.00;;
10052;SDS011;52418;53.134;8.236;2022-08-24T05:53:31;1.00;;;1.00;;
10052;SDS011;52418;53.134;8.236;2022-08-24T05:55:57;1.00;;;1.00;;
10052;SDS011;52418;53.134;8.236;2022-08-24T05:58:22;1.10;;;1.10;;
10052;SDS011;52418;53.134;8.236;2022-08-24T06:00:47;1.00;;;1.00;;
10052;SDS011;52418;53.134;8.236;2022-08-24T06:03:14;1.10;;;1.10;;
10052;SDS011;52418;53.134;8.236;2022-08-24T06:05:39;1.10;;;1.10;;
10052;SDS011;52418;53.134;8.236;2022-08-24T06:08:05;1.00;;;1.00;;
10052;SDS011;52418;53.134;8.236;2022-08-24T06:10:30;1.00;;;1.00;;
10052;SDS011;52418;53.134;8.236;2022-08-24T06:12:56;1.00;;;1.00;;
10052;SDS011;52418;53.134;8.236;2022-08-24T06:15:22;1.10;;;1.10;;
10052;SDS011;52418;53.134;8.236;2022-08-24T06:17:47;1.00;;;1.00;;
10052;SDS011;52418;53.134;8.236;2022-08-24T06:20:12;1.00;;;1.00;;
10052;SDS011;52418;53.134;8.236;2022-08-24T06:22:37;1.10;;;1.10;;
10052;SDS011;52418;53.134;8.236;2022-08-24T06:25:03;0.95;;;0.95;;
10052;SDS011;52418;53.134;8.236;2022-08-24T06:27:47;1.00;;;1.00;;
10052;SDS011;52418;53.134;8.236;2022-08-24T06:30:12;1.00;;;1.00;;
10052;SDS011;52418;53.134;8.236;2022-08-24T06:32:37;0.98;;;0.98;;
10052;SDS011;52418;53.134;8.236;2022-08-24T06:35:03;1.00;;;1.00;;
10052;SDS011;52418;53.134;8.236;2022-08-24T06:37:29;1.00;;;1.00;;
10052;SDS011;52418;53.134;8.236;2022-08-24T06:39:54;1.00;;;1.00;;
10052;SDS011;52418;53.134;8.236;2022-08-24T06:42:20;1.10;;;1.10;;
10052;SDS011;52418;53.134;8.236;2022-08-24T06:44:45;1.00;;;1.00;;
10052;SDS011;52418;53.134;8.236;2022-08-24T06:47:10;0.93;;;0.93;;
10052;SDS011;52418;53.134;8.236;2022-08-24T06:49:36;1.02;;;1.02;;
10052;SDS011;52418;53.134;8.236;2022-08-24T06:52:02;1.00;;;1.00;;
10052;SDS011;52418;53.134;8.236;2022-08-24T06:54:28;1.00;;;1.00;;
10052;SDS011;52418;53.134;8.236;2022-08-24T06:56:53;1.00;;;1.00;;
10052;SDS011;52418;53.134;8.236;2022-08-24T06:59:20;1.00;;;1.00;;
10052;SDS011;52418;53.134;8.236;2022-08-24T07:01:45;1.05;;;1.05;;
10052;SDS011;52418;53.134;8.236;2022-08-24T07:04:10;1.00;;;1.00;;
10052;SDS011;52418;53.134;8.236;2022-08-24T07:06:35;1.00;;;1.00;;
10052;SDS011;52418;53.134;8.236;2022-08-24T07:09:01;1.10;;;1.10;;
10052;SDS011;52418;53.134;8.236;2022-08-24T07:11:26;1.20;;;1.20;;
10052;SDS011;52418;53.134;8.236;2022-08-24T07:13:51;1.10;;;1.10;;
10052;SDS011;52418;53.134;8.236;2022-08-24T07:16:17;1.10;;;1.10;;
10052;SDS011;52418;53.134;8.236;2022-08-24T07:18:43;1.10;;;1.10;;
10052;SDS011;52418;53.134;8.236;2022-08-24T07:21:08;1.20;;;1.20;;
10052;SDS011;52418;53.134;8.236;2022-08-24T07:23:33;1.20;;;1.20;;
10052;SDS011;52418;53.134;8.236;2022-08-24T07:26:05;1.20;;;1.20;;
10052;SDS011;52418;53.134;8.236;2022-08-24T07:28:33;1.10;;;1.10;;
10052;SDS011;52418;53.134;8.236;2022-08-24T07:30:58;1.10;;;1.10;;
10052;SDS011;52418;53.134;8.236;2022-08-24T07:33:24;1.10;;;1.10;;
10052;SDS011;52418;53.134;8.236;2022-08-24T07:35:49;1.00;;;1.00;;
10052;SDS011;52418;53.134;8.236;2022-08-24T07:38:14;1.10;;;1.10;;
10052;SDS011;52418;53.134;8.236;2022-08-24T07:40:39;1.08;;;1.08;;
10052;SDS011;52418;53.134;8.236;2022-08-24T07:43:07;1.05;;;1.05;;
10052;SDS011;52418;53.134;8.236;2022-08-24T07:45:32;1.00;;;1.00;;
10052;SDS011;52418;53.134;8.236;2022-08-24T07:47:58;1.20;;;1.20;;
10052;SDS011;52418;53.134;8.236;2022-08-24T07:50:23;1.10;;;1.10;;
10052;SDS011;52418;53.134;8.236;2022-08-24T07:52:48;1.20;;;1.20;;
10052;SDS011;52418;53.134;8.236;2022-08-24T07:55:14;1.25;;;1.25;;
10052;SDS011;52418;53.134;8.236;2022-08-24T07:57:39;1.20;;;1.20;;
10052;SDS011;52418;53.134;8.236;2022-08-24T08:00:06;1.20;;;1.20;;
10052;SDS011;52418;53.134;8.236;2022-08-24T08:02:32;1.20;;;1.20;;
10052;SDS011;52418;53.134;8.236;2022-08-24T08:04:57;1.20;;;1.20;;
10052;SDS011;52418;53.134;8.236;2022-08-24T08:07:22;1.20;;;1.20;;
10052;SDS011;52418;53.134;8.236;2022-08-24T08:09:48;1.20;;;1.20;;
10052;SDS011;52418;53.134;8.236;2022-08-24T08:12:13;1.17;;;1.17;;
10052;SDS011;52418;53.134;8.236;2022-08-24T08:14:39;1.17;;;1.17;;
10052;SDS011;52418;53.134;8.236;2022-08-24T08:17:04;1.17;;;1.17;;
10052;SDS011;52418;53.134;8.236;2022-08-24T08:19:30;1.20;;;1.20;;
10052;SDS011;52418;53.134;8.236;2022-08-24T08:21:56;1.30;;;1.30;;
10052;SDS011;52418;53.134;8.236;2022-08-24T08:24:40;1.20;;;1.20;;
10052;SDS011;52418;53.134;8.236;2022-08-24T08:27:09;1.10;;;1.10;;
10052;SDS011;52418;53.134;8.236;2022-08-24T08:29:35;1.10;;;1.10;;
10052;SDS011;52418;53.134;8.236;2022-08-24T08:32:00;1.20;;;1.20;;
10052;SDS011;52418;53.134;8.236;2022-08-24T08:34:26;1.30;;;1.30;;
10052;SDS011;52418;53.134;8.236;2022-08-24T08:36:51;1.13;;;1.13;;
10052;SDS011;52418;53.134;8.236;2022-08-24T08:39:17;1.20;;;1.20;;
10052;SDS011;52418;53.134;8.236;2022-08-24T08:49:31;1.10;;;1.10;;
10052;SDS011;52418;53.134;8.236;2022-08-24T08:52:12;1.10;;;1.10;;
10052;SDS011;52418;53.134;8.236;2022-08-24T08:54:53;1.20;;;1.20;;
10052;SDS011;52418;53.134;8.236;2022-08-24T09:00:16;1.20;;;1.20;;
10052;SDS011;52418;53.134;8.236;2022-08-24T09:25:55;1.10;;;1.10;;
10052;SDS011;52418;53.134;8.236;2022-08-24T09:33:43;1.20;;;1.20;;
10052;SDS011;52418;53.134;8.236;2022-08-24T09:36:10;1.20;;;1.20;;
10052;SDS011;52418;53.134;8.236;2022-08-24T09:41:29;1.20;;;1.20;;
10052;SDS011;52418;53.134;8.236;2022-08-24T10:02:26;1.30;;;1.30;;
10052;SDS011;52418;53.134;8.236;2022-08-24T10:04:58;1.30;;;1.30;;
10052;SDS011;52418;53.134;8.236;2022-08-24T10:15:28;1.30;;;1.30;;
10052;SDS011;52418;53.134;8.236;2022-08-24T10:20:46;1.30;;;1.30;;
10052;SDS011;52418;53.134;8.236;2022-08-24T10:26:02;1.20;;;1.20;;
10052;SDS011;52418;53.134;8.236;2022-08-24T10:28:48;1.30;;;1.30;;
10052;SDS011;52418;53.134;8.236;2022-08-24T10:31:18;1.20;;;1.20;;
10052;SDS011;52418;53.134;8.236;2022-08-24T10:36:15;1.10;;;1.10;;
10052;SDS011;52418;53.134;8.236;2022-08-24T10:44:45;1.35;;;1.35;;
10052;SDS011;52418;53.134;8.236;2022-08-24T10:47:11;1.33;;;1.33;;
10052;SDS011;52418;53.134;8.236;2022-08-24T10:49:49;1.23;;;1.23;;
10052;SDS011;52418;53.134;8.236;2022-08-24T10:54:54;1.20;;;1.20;;
10052;SDS011;52418;53.134;8.236;2022-08-24T10:59:50;1.30;;;1.30;;
10052;SDS011;52418;53.134;8.236;2022-08-24T11:02:35;1.30;;;1.30;;
10052;SDS011;52418;53.134;8.236;2022-08-24T11:05:04;1.25;;;1.25;;
10052;SDS011;52418;53.134;8.236;2022-08-24T11:07:29;1.30;;;1.30;;
10052;SDS011;52418;53.134;8.236;2022-08-24T11:09:56;1.30;;;1.30;;
10052;SDS011;52418;53.134;8.236;2022-08-24T11:14:54;1.15;;;1.15;;
10052;SDS011;52418;53.134;8.236;2022-08-24T11:17:21;1.15;;;1.15;;
10052;SDS011;52418;53.134;8.236;2022-08-24T11:19:47;1.17;;;1.17;;
10052;SDS011;52418;53.134;8.236;2022-08-24T11:22:25;1.10;;;1.10;;
10052;SDS011;52418;53.134;8.236;2022-08-24T11:24:52;1.20;;;1.20;;
10052;SDS011;52418;53.134;8.236;2022-08-24T11:27:27;1.20;;;1.20;;
10052;SDS011;52418;53.134;8.236;2022-08-24T11:29:55;1.20;;;1.20;;
10052;SDS011;52418;53.134;8.236;2022-08-24T11:32:26;1.10;;;1.10;;
10052;SDS011;52418;53.134;8.236;2022-08-24T11:34:51;1.10;;;1.10;;
10052;SDS011;52418;53.134;8.236;2022-08-24T11:37:18;1.20;;;1.20;;
10052;SDS011;52418;53.134;8.236;2022-08-24T11:39:46;1.10;;;1.10;;
10052;SDS011;52418;53.134;8.236;2022-08-24T11:42:17;1.10;;;1.10;;
10052;SDS011;52418;53.134;8.236;2022-08-24T11:44:51;1.20;;;1.20;;
10052;SDS011;52418;53.134;8.236;2022-08-24T11:47:32;1.30;;;1.30;;
10052;SDS011;52418;53.134;8.236;2022-08-24T11:55:35;1.02;;;1.02;;
10052;SDS011;52418;53.134;8.236;2022-08-24T12:00:45;1.10;;;1.10;;
10052;SDS011;52418;53.134;8.236;2022-08-24T12:05:52;1.17;;;1.17;;
10052;SDS011;52418;53.134;8.236;2022-08-24T12:16:15;1.30;;;1.30;;
10052;SDS011;52418;53.134;8.236;2022-08-24T12:18:44;1.30;;;1.30;;
10052;SDS011;52418;53.134;8.236;2022-08-24T12:21:12;1.10;;;1.10;;
10052;SDS011;52418;53.134;8.236;2022-08-24T12:23:46;1.10;;;1.10;;
10052;SDS011;52418;53.134;8.236;2022-08-24T12:26:29;1.20;;;1.20;;
10052;SDS011;52418;53.134;8.236;2022-08-24T12:29:08;1.02;;;1.02;;
10052;SDS011;52418;53.134;8.236;2022-08-24T12:31:48;1.13;;;1.13;;
10052;SDS011;52418;53.134;8.236;2022-08-24T12:34:22;1.20;;;1.20;;
10052;SDS011;52418;53.134;8.236;2022-08-24T12:39:45;1.20;;;1.20;;
10052;SDS011;52418;53.134;8.236;2022-08-24T12:42:21;1.30;;;1.30;;
10052;SDS011;52418;53.134;8.236;2022-08-24T12:44:58;1.35;;;1.30;;
10052;SDS011;52418;53.134;8.236;2022-08-24T12:47:25;1.50;;;1.40;;
10052;SDS011;52418;53.134;8.236;2022-08-24T12:49:54;1.30;;;1.30;;
10052;SDS011;52418;53.134;8.236;2022-08-24T13:00:18;1.30;;;1.30;;
10052;SDS011;52418;53.134;8.236;2022-08-24T13:02:44;1.50;;;1.40;;
10052;SDS011;52418;53.134;8.236;2022-08-24T13:05:18;1.42;;;1.33;;
10052;SDS011;52418;53.134;8.236;2022-08-24T13:07:45;1.50;;;1.40;;
10052;SDS011;52418;53.134;8.236;2022-08-24T13:20:19;1.30;;;1.30;;
10052;SDS011;52418;53.134;8.236;2022-08-24T13:23:04;1.30;;;1.30;;
10052;SDS011;52418;53.134;8.236;2022-08-24T13:25:41;1.30;;;1.30;;
10052;SDS011;52418;53.134;8.236;2022-08-24T13:28:13;1.30;;;1.30;;
10052;SDS011;52418;53.134;8.236;2022-08-24T13:36:08;1.30;;;1.30;;
10052;SDS011;52418;53.134;8.236;2022-08-24T13:38:57;1.30;;;1.30;;
10052;SDS011;52418;53.134;8.236;2022-08-24T13:44:10;1.40;;;1.35;;
10052;SDS011;52418;53.134;8.236;2022-08-24T13:46:46;1.38;;;1.30;;
10052;SDS011;52418;53.134;8.236;2022-08-24T13:51:56;1.30;;;1.30;;
10052;SDS011;52418;53.134;8.236;2022-08-24T13:55:04;1.20;;;1.20;;
10052;SDS011;52418;53.134;8.236;2022-08-24T14:00:12;1.30;;;1.30;;
10052;SDS011;52418;53.134;8.236;2022-08-24T14:02:49;1.20;;;1.20;;
10052;SDS011;52418;53.134;8.236;2022-08-24T14:05:28;1.30;;;1.30;;
10052;SDS011;52418;53.134;8.236;2022-08-24T14:07:58;1.23;;;1.23;;
10052;SDS011;52418;53.134;8.236;2022-08-24T14:25:46;1.30;;;1.30;;
10052;SDS011;52418;53.134;8.236;2022-08-24T14:33:44;1.30;;;1.30;;
10052;SDS011;52418;53.134;8.236;2022-08-24T14:36:15;1.40;;;1.40;;
10052;SDS011;52418;53.134;8.236;2022-08-24T14:38:50;1.30;;;1.30;;
10052;SDS011;52418;53.134;8.236;2022-08-24T14:41:20;1.30;;;1.30;;
10052;SDS011;52418;53.134;8.236;2022-08-24T14:46:24;1.50;;;1.40;;
10052;SDS011;52418;53.134;8.236;2022-08-24T14:48:56;1.30;;;1.30;;
10052;SDS011;52418;53.134;8.236;2022-08-24T14:54:00;1.50;;;1.40;;
10052;SDS011;52418;53.134;8.236;2022-08-24T15:01:43;1.45;;;1.35;;
10052;SDS011;52418;53.134;8.236;2022-08-24T15:04:29;1.30;;;1.30;;
10052;SDS011;52418;53.134;8.236;2022-08-24T15:09:51;1.30;;;1.30;;
10052;SDS011;52418;53.134;8.236;2022-08-24T15:14:50;1.30;;;1.30;;
10052;SDS011;52418;53.134;8.236;2022-08-24T15:17:18;1.50;;;1.40;;
10052;SDS011;52418;53.134;8.236;2022-08-24T15:22:24;1.50;;;1.40;;
10052;SDS011;52418;53.134;8.236;2022-08-24T15:24:56;1.30;;;1.30;;
10052;SDS011;52418;53.134;8.236;2022-08-24T15:27:41;1.50;;;1.40;;
10052;SDS011;52418;53.134;8.236;2022-08-24T15:30:17;1.45;;;1.38;;
10052;SDS011;52418;53.134;8.236;2022-08-24T15:32:44;1.30;;;1.30;;
10052;SDS011;52418;53.134;8.236;2022-08-24T15:35:29;1.42;;;1.33;;
10052;SDS011;52418;53.134;8.236;2022-08-24T15:37:55;1.20;;;1.20;;
10052;SDS011;52418;53.134;8.236;2022-08-24T15:40:25;1.13;;;1.13;;
10052;SDS011;52418;53.134;8.236;2022-08-24T15:42:53;1.17;;;1.17;;
10052;SDS011;52418;53.134;8.236;2022-08-24T15:45:19;1.20;;;1.20;;
10052;SDS011;52418;53.134;8.236;2022-08-24T15:47:45;1.20;;;1.20;;
10052;SDS011;52418;53.134;8.236;2022-08-24T15:50:24;1.30;;;1.30;;
10052;SDS011;52418;53.134;8.236;2022-08-24T15:52:55;1.20;;;1.20;;
10052;SDS011;52418;53.134;8.236;2022-08-24T15:55:26;1.20;;;1.20;;
10052;SDS011;52418;53.134;8.236;2022-08-24T15:57:52;1.30;;;1.30;;
10052;SDS011;52418;53.134;8.236;2022-08-24T16:00:20;1.10;;;1.10;;
10052;SDS011;52418;53.134;8.236;2022-08-24T16:03:19;1.20;;;1.20;;
10052;SDS011;52418;53.134;8.236;2022-08-24T16:05:45;1.20;;;1.20;;
10052;SDS011;52418;53.134;8.236;2022-08-24T16:08:10;1.30;;;1.30;;
10052;SDS011;52418;53.134;8.236;2022-08-24T16:13:29;1.20;;;1.20;;
10052;SDS011;52418;53.134;8.236;2022-08-24T16:21:14;1.30;;;1.30;;
10052;SDS011;52418;53.134;8.236;2022-08-24T16:23:41;1.30;;;1.30;;
10052;SDS011;52418;53.134;8.236;2022-08-24T16:26:18;1.30;;;1.30;;
10052;SDS011;52418;53.134;8.236;2022-08-24T16:28:43;1.20;;;1.20;;
10052;SDS011;52418;53.134;8.236;2022-08-24T16:31:08;1.30;;;1.30;;
10052;SDS011;52418;53.134;8.236;2022-08-24T16:33:35;1.20;;;1.20;;
10052;SDS011;52418;53.134;8.236;2022-08-24T16:36:05;1.20;;;1.20;;
10052;SDS011;52418;53.134;8.236;2022-08-24T16:38:31;1.20;;;1.20;;
10052;SDS011;52418;53.134;8.236;2022-08-24T16:40:58;1.48;;;1.38;;
10052;SDS011;52418;53.134;8.236;2022-08-24T16:43:23;1.10;;;1.10;;
10052;SDS011;52418;53.134;8.236;2022-08-24T16:45:49;1.30;;;1.30;;
10052;SDS011;52418;53.134;8.236;2022-08-24T16:48:14;1.20;;;1.20;;
10052;SDS011;52418;53.134;8.236;2022-08-24T16:50:39;1.10;;;1.10;;
10052;SDS011;52418;53.134;8.236;2022-08-24T16:53:04;1.20;;;1.20;;
10052;SDS011;52418;53.134;8.236;2022-08-24T16:55:29;1.10;;;1.10;;
10052;SDS011;52418;53.134;8.236;2022-08-24T16:57:55;1.30;;;1.30;;
10052;SDS011;52418;53.134;8.236;2022-08-24T17:00:20;1.33;;;1.33;;
10052;SDS011;52418;53.134;8.236;2022-08-24T17:02:46;1.30;;;1.30;;
10052;SDS011;52418;53.134;8.236;2022-08-24T17:05:12;1.30;;;1.30;;
10052;SDS011;52418;53.134;8.236;2022-08-24T17:07:37;1.20;;;1.20;;
10052;SDS011;52418;53.134;8.236;2022-08-24T17:10:03;1.33;;;1.33;;
10052;SDS011;52418;53.134;8.236;2022-08-24T17:12:29;1.30;;;1.30;;
10052;SDS011;52418;53.134;8.236;2022-08-24T17:14:55;1.20;;;1.20;;
10052;SDS011;52418;53.134;8.236;2022-08-24T17:17:20;1.20;;;1.20;;
10052;SDS011;52418;53.134;8.236;2022-08-24T17:19:49;1.30;;;1.30;;
10052;SDS011;52418;53.134;8.236;2022-08-24T17:22:15;1.20;;;1.20;;
10052;SDS011;52418;53.134;8.236;2022-08-24T17:24:40;1.17;;;1.17;;
10052;SDS011;52418;53.134;8.236;2022-08-24T17:27:05;1.20;;;1.20;;
10052;SDS011;52418;53.134;8.236;2022-08-24T17:29:31;1.10;;;1.10;;
10052;SDS011;52418;53.134;8.236;2022-08-24T17:31:56;1.10;;;1.10;;
10052;SDS011;52418;53.134;8.236;2022-08-24T17:34:23;1.17;;;1.17;;
10052;SDS011;52418;53.134;8.236;2022-08-24T17:36:49;1.13;;;1.13;;
10052;SDS011;52418;53.134;8.236;2022-08-24T17:39:14;1.20;;;1.20;;
10052;SDS011;52418;53.134;8.236;2022-08-24T17:41:40;1.20;;;1.20;;
10052;SDS011;52418;53.134;8.236;2022-08-24T17:44:06;1.20;;;1.20;;
10052;SDS011;52418;53.134;8.236;2022-08-24T17:46:32;1.20;;;1.20;;
10052;SDS011;52418;53.134;8.236;2022-08-24T17:48:57;1.20;;;1.20;;
10052;SDS011;52418;53.134;8.236;2022-08-24T17:51:23;1.20;;;1.20;;
10052;SDS011;52418;53.134;8.236;2022-08-24T17:53:51;1.20;;;1.20;;
10052;SDS011;52418;53.134;8.236;2022-08-24T17:56:17;1.20;;;1.20;;
10052;SDS011;52418;53.134;8.236;2022-08-24T17:58:42;1.30;;;1.30;;
10052;SDS011;52418;53.134;8.236;2022-08-24T18:01:26;1.45;;;1.40;;
10052;SDS011;52418;53.134;8.236;2022-08-24T18:03:51;1.20;;;1.20;;
10052;SDS011;52418;53.134;8.236;2022-08-24T18:06:18;1.30;;;1.30;;
10052;SDS011;52418;53.134;8.236;2022-08-24T18:08:44;1.20;;;1.20;;